sensor_id;sensor_type;location;lat;lon;timestamp;P1;durP1;ratioP1;P2;durP2;ratioP2
10967;SDS011;5536;49.602;10.980;2022-09-12T00:00:38;0.67;;;0.67;;
10967;SDS011;5536;49.602;10.980;2022-09-12T00:03:05;0.77;;;0.77;;
10967;SDS011;5536;49.602;10.980;2022-09-12T00:05:32;0.70;;;0.70;;
10967;SDS011;5536;49.602;10.980;2022-09-12T00:08:00;0.67;;;0.63;;
10967;SDS011;5536;49.602;10.980;2022-09-12T00:10:27;1.30;;;1.07;;
10967;SDS011;5536;49.602;10.980;2022-09-12T00:12:54;0.80;;;0.80;;
10967;SDS011;5536;49.602;10.980;2022-09-12T00:15:21;0.50;;;0.50;;
10967;SDS011;5536;49.602;10.980;2022-09-12T00:17:51;0.90;;;0.90;;
10967;SDS011;5536;49.602;10.980;2022-09-12T00:20:18;1.47;;;0.63;;
10967;SDS011;5536;49.602;10.980;2022-09-12T00:22:45;0.83;;;0.83;;
10967;SDS011;5536;49.602;10.980;2022-09-12T00:25:13;0.37;;;0.37;;
10967;SDS011;5536;49.602;10.980;2022-09-12T00:27:43;1.07;;;0.90;;
10967;SDS011;5536;49.602;10.980;2022-09-12T00:30:10;0.67;;;0.67;;
10967;SDS011;5536;49.602;10.980;2022-09-12T00:32:37;3.30;;;0.70;;
10967;SDS011;5536;49.602;10.980;2022-09-12T00:35:05;0.77;;;0.77;;
10967;SDS011;5536;49.602;10.980;2022-09-12T00:37:33;1.10;;;1.00;;
10967;SDS011;5536;49.602;10.980;2022-09-12T00:40:00;0.93;;;0.77;;
10967;SDS011;5536;49.602;10.980;2022-09-12T00:42:28;0.60;;;0.60;;
10967;SDS011;5536;49.602;10.980;2022-09-12T00:44:55;0.83;;;0.83;;
10967;SDS011;5536;49.602;10.980;2022-09-12T00:47:22;0.50;;;0.50;;
10967;SDS011;5536;49.602;10.980;2022-09-12T00:49:57;0.90;;;0.90;;
10967;SDS011;5536;49.602;10.980;2022-09-12T00:52:29;1.00;;;1.00;;
10967;SDS011;5536;49.602;10.980;2022-09-12T00:55:03;0.50;;;0.50;;
10967;SDS011;5536;49.602;10.980;2022-09-12T00:57:35;0.50;;;0.50;;
10967;SDS011;5536;49.602;10.980;2022-09-12T01:00:07;0.67;;;0.67;;
10967;SDS011;5536;49.602;10.980;2022-09-12T01:02:40;0.70;;;0.70;;
10967;SDS011;5536;49.602;10.980;2022-09-12T01:05:08;0.80;;;0.80;;
10967;SDS011;5536;49.602;10.980;2022-09-12T01:07:35;1.07;;;1.07;;
10967;SDS011;5536;49.602;10.980;2022-09-12T01:10:03;0.60;;;0.60;;
10967;SDS011;5536;49.602;10.980;2022-09-12T01:12:31;0.73;;;0.73;;
10967;SDS011;5536;49.602;10.980;2022-09-12T01:15:00;1.37;;;1.10;;
10967;SDS011;5536;49.602;10.980;2022-09-12T01:17:28;0.70;;;0.70;;
10967;SDS011;5536;49.602;10.980;2022-09-12T01:23:14;0.77;;;0.77;;
10967;SDS011;5536;49.602;10.980;2022-09-12T01:26:11;0.70;;;0.70;;
10967;SDS011;5536;49.602;10.980;2022-09-12T01:28:55;1.00;;;0.93;;
10967;SDS011;5536;49.602;10.980;2022-09-12T01:31:39;0.67;;;0.67;;
10967;SDS011;5536;49.602;10.980;2022-09-12T01:34:14;0.90;;;0.90;;
10967;SDS011;5536;49.602;10.980;2022-09-12T01:36:52;0.80;;;0.80;;
10967;SDS011;5536;49.602;10.980;2022-09-12T01:39:31;0.30;;;0.30;;
10967;SDS011;5536;49.602;10.980;2022-09-12T01:42:07;0.50;;;0.50;;
10967;SDS011;5536;49.602;10.980;2022-09-12T01:44:43;0.67;;;0.67;;
10967;SDS011;5536;49.602;10.980;2022-09-12T01:47:18;0.63;;;0.63;;
10967;SDS011;5536;49.602;10.980;2022-09-12T01:49:55;0.47;;;0.47;;
10967;SDS011;5536;49.602;10.980;2022-09-12T01:52:26;0.30;;;0.30;;
10967;SDS011;5536;49.602;10.980;2022-09-12T01:54:58;0.57;;;0.57;;
10967;SDS011;5536;49.602;10.980;2022-09-12T01:57:31;0.60;;;0.60;;
10967;SDS011;5536;49.602;10.980;2022-09-12T02:00:04;0.30;;;0.30;;
10967;SDS011;5536;49.602;10.980;2022-09-12T02:02:36;0.47;;;0.47;;
10967;SDS011;5536;49.602;10.980;2022-09-12T02:05:07;0.60;;;0.60;;
10967;SDS011;5536;49.602;10.980;2022-09-12T02:07:36;0.90;;;0.83;;
10967;SDS011;5536;49.602;10.980;2022-09-12T02:10:06;0.57;;;0.57;;
10967;SDS011;5536;49.602;10.980;2022-09-12T02:12:38;0.50;;;0.50;;
10967;SDS011;5536;49.602;10.980;2022-09-12T02:15:10;0.47;;;0.47;;
10967;SDS011;5536;49.602;10.980;2022-09-12T02:17:42;0.80;;;0.80;;
10967;SDS011;5536;49.602;10.980;2022-09-12T02:20:13;0.67;;;0.67;;
10967;SDS011;5536;49.602;10.980;2022-09-12T02:22:44;0.40;;;0.40;;
10967;SDS011;5536;49.602;10.980;2022-09-12T02:25:11;0.53;;;0.53;;
10967;SDS011;5536;49.602;10.980;2022-09-12T02:27:43;0.50;;;0.50;;
10967;SDS011;5536;49.602;10.980;2022-09-12T02:30:14;0.50;;;0.50;;
10967;SDS011;5536;49.602;10.980;2022-09-12T02:32:46;0.80;;;0.80;;
10967;SDS011;5536;49.602;10.980;2022-09-12T02:35:24;0.60;;;0.60;;
10967;SDS011;5536;49.602;10.980;2022-09-12T02:38:01;0.50;;;0.50;;
10967;SDS011;5536;49.602;10.980;2022-09-12T02:40:32;0.40;;;0.40;;
10967;SDS011;5536;49.602;10.980;2022-09-12T02:43:00;0.43;;;0.43;;
10967;SDS011;5536;49.602;10.980;2022-09-12T02:45:28;0.87;;;0.87;;
10967;SDS011;5536;49.602;10.980;2022-09-12T02:47:58;0.60;;;0.60;;
10967;SDS011;5536;49.602;10.980;2022-09-12T02:50:28;0.30;;;0.30;;
10967;SDS011;5536;49.602;10.980;2022-09-12T02:52:55;0.40;;;0.40;;
10967;SDS011;5536;49.602;10.980;2022-09-12T02:55:27;0.80;;;0.80;;
10967;SDS011;5536;49.602;10.980;2022-09-12T02:57:55;0.60;;;0.60;;
10967;SDS011;5536;49.602;10.980;2022-09-12T03:00:22;0.40;;;0.40;;
10967;SDS011;5536;49.602;10.980;2022-09-12T03:02:56;0.60;;;0.60;;
10967;SDS011;5536;49.602;10.980;2022-09-12T03:05:35;0.60;;;0.60;;
10967;SDS011;5536;49.602;10.980;2022-09-12T03:08:14;0.37;;;0.37;;
10967;SDS011;5536;49.602;10.980;2022-09-12T03:10:57;0.70;;;0.70;;
10967;SDS011;5536;49.602;10.980;2022-09-12T03:13:39;0.53;;;0.53;;
10967;SDS011;5536;49.602;10.980;2022-09-12T03:16:16;0.47;;;0.47;;
10967;SDS011;5536;49.602;10.980;2022-09-12T03:18:53;0.30;;;0.30;;
10967;SDS011;5536;49.602;10.980;2022-09-12T03:21:30;0.57;;;0.57;;
10967;SDS011;5536;49.602;10.980;2022-09-12T03:24:04;0.40;;;0.40;;
10967;SDS011;5536;49.602;10.980;2022-09-12T03:26:39;0.30;;;0.30;;
10967;SDS011;5536;49.602;10.980;2022-09-12T03:29:09;0.47;;;0.47;;
10967;SDS011;5536;49.602;10.980;2022-09-12T03:31:46;0.30;;;0.30;;
10967;SDS011;5536;49.602;10.980;2022-09-12T03:34:16;0.50;;;0.50;;
10967;SDS011;5536;49.602;10.980;2022-09-12T03:36:43;0.50;;;0.50;;
10967;SDS011;5536;49.602;10.980;2022-09-12T03:39:10;0.40;;;0.40;;
10967;SDS011;5536;49.602;10.980;2022-09-12T03:41:37;0.40;;;0.40;;
10967;SDS011;5536;49.602;10.980;2022-09-12T03:44:06;0.63;;;0.63;;
10967;SDS011;5536;49.602;10.980;2022-09-12T03:46:33;0.50;;;0.47;;
10967;SDS011;5536;49.602;10.980;2022-09-12T03:49:00;0.70;;;0.70;;
10967;SDS011;5536;49.602;10.980;2022-09-12T03:51:28;0.37;;;0.37;;
10967;SDS011;5536;49.602;10.980;2022-09-12T03:53:55;0.60;;;0.60;;
10967;SDS011;5536;49.602;10.980;2022-09-12T03:56:22;0.20;;;0.20;;
10967;SDS011;5536;49.602;10.980;2022-09-12T03:58:49;0.57;;;0.57;;
10967;SDS011;5536;49.602;10.980;2022-09-12T04:01:19;0.53;;;0.53;;
10967;SDS011;5536;49.602;10.980;2022-09-12T04:03:47;0.77;;;0.60;;
10967;SDS011;5536;49.602;10.980;2022-09-12T04:06:16;0.63;;;0.63;;
10967;SDS011;5536;49.602;10.980;2022-09-12T04:08:48;0.50;;;0.50;;
10967;SDS011;5536;49.602;10.980;2022-09-12T04:11:16;1.00;;;0.73;;
10967;SDS011;5536;49.602;10.980;2022-09-12T04:13:44;0.70;;;0.70;;
10967;SDS011;5536;49.602;10.980;2022-09-12T04:16:12;0.60;;;0.60;;
10967;SDS011;5536;49.602;10.980;2022-09-12T04:18:40;0.47;;;0.40;;
10967;SDS011;5536;49.602;10.980;2022-09-12T04:21:07;0.40;;;0.40;;
10967;SDS011;5536;49.602;10.980;2022-09-12T04:23:36;1.20;;;1.10;;
10967;SDS011;5536;49.602;10.980;2022-09-12T04:26:05;0.67;;;0.67;;
10967;SDS011;5536;49.602;10.980;2022-09-12T04:28:32;0.30;;;0.30;;
10967;SDS011;5536;49.602;10.980;2022-09-12T04:31:00;0.60;;;0.60;;
10967;SDS011;5536;49.602;10.980;2022-09-12T04:33:29;0.67;;;0.67;;
10967;SDS011;5536;49.602;10.980;2022-09-12T04:35:55;0.50;;;0.50;;
10967;SDS011;5536;49.602;10.980;2022-09-12T04:38:27;0.20;;;0.20;;
10967;SDS011;5536;49.602;10.980;2022-09-12T04:40:54;0.37;;;0.37;;
10967;SDS011;5536;49.602;10.980;2022-09-12T04:43:23;0.50;;;0.50;;
10967;SDS011;5536;49.602;10.980;2022-09-12T04:45:50;0.30;;;0.30;;
10967;SDS011;5536;49.602;10.980;2022-09-12T04:48:17;0.67;;;0.67;;
10967;SDS011;5536;49.602;10.980;2022-09-12T04:50:44;0.50;;;0.50;;
10967;SDS011;5536;49.602;10.980;2022-09-12T04:53:10;0.33;;;0.33;;
10967;SDS011;5536;49.602;10.980;2022-09-12T04:55:37;0.60;;;0.60;;
10967;SDS011;5536;49.602;10.980;2022-09-12T04:58:04;0.50;;;0.50;;
10967;SDS011;5536;49.602;10.980;2022-09-12T05:00:33;0.60;;;0.60;;
10967;SDS011;5536;49.602;10.980;2022-09-12T05:03:00;0.60;;;0.60;;
10967;SDS011;5536;49.602;10.980;2022-09-12T05:05:27;0.60;;;0.60;;
10967;SDS011;5536;49.602;10.980;2022-09-12T05:07:54;0.50;;;0.50;;
10967;SDS011;5536;49.602;10.980;2022-09-12T05:10:21;0.37;;;0.37;;
10967;SDS011;5536;49.602;10.980;2022-09-12T05:12:47;0.43;;;0.43;;
10967;SDS011;5536;49.602;10.980;2022-09-12T05:15:15;0.33;;;0.33;;
10967;SDS011;5536;49.602;10.980;2022-09-12T05:17:43;0.83;;;0.83;;
10967;SDS011;5536;49.602;10.980;2022-09-12T05:20:10;0.50;;;0.50;;
10967;SDS011;5536;49.602;10.980;2022-09-12T05:22:37;0.60;;;0.60;;
10967;SDS011;5536;49.602;10.980;2022-09-12T05:25:05;0.40;;;0.40;;
10967;SDS011;5536;49.602;10.980;2022-09-12T05:27:33;1.67;;;1.10;;
10967;SDS011;5536;49.602;10.980;2022-09-12T05:29:59;1.33;;;0.80;;
10967;SDS011;5536;49.602;10.980;2022-09-12T05:32:29;0.63;;;0.63;;
10967;SDS011;5536;49.602;10.980;2022-09-12T05:34:58;0.20;;;0.20;;
10967;SDS011;5536;49.602;10.980;2022-09-12T05:37:25;0.40;;;0.40;;
10967;SDS011;5536;49.602;10.980;2022-09-12T05:39:52;0.50;;;0.50;;
10967;SDS011;5536;49.602;10.980;2022-09-12T05:42:19;0.60;;;0.60;;
10967;SDS011;5536;49.602;10.980;2022-09-12T05:44:47;0.73;;;0.73;;
10967;SDS011;5536;49.602;10.980;2022-09-12T05:47:14;1.10;;;1.03;;
10967;SDS011;5536;49.602;10.980;2022-09-12T05:49:42;0.47;;;0.47;;
10967;SDS011;5536;49.602;10.980;2022-09-12T05:52:13;0.40;;;0.40;;
10967;SDS011;5536;49.602;10.980;2022-09-12T05:54:40;0.60;;;0.60;;
10967;SDS011;5536;49.602;10.980;2022-09-12T05:57:07;0.70;;;0.70;;
10967;SDS011;5536;49.602;10.980;2022-09-12T05:59:34;0.73;;;0.73;;
10967;SDS011;5536;49.602;10.980;2022-09-12T06:02:01;1.27;;;1.17;;
10967;SDS011;5536;49.602;10.980;2022-09-12T06:04:28;1.63;;;1.53;;
10967;SDS011;5536;49.602;10.980;2022-09-12T06:06:55;0.70;;;0.70;;
10967;SDS011;5536;49.602;10.980;2022-09-12T06:09:23;1.00;;;0.80;;
10967;SDS011;5536;49.602;10.980;2022-09-12T06:11:50;1.50;;;1.40;;
10967;SDS011;5536;49.602;10.980;2022-09-12T06:14:17;1.13;;;0.80;;
10967;SDS011;5536;49.602;10.980;2022-09-12T06:16:44;0.73;;;0.73;;
10967;SDS011;5536;49.602;10.980;2022-09-12T06:19:13;0.93;;;0.93;;
10967;SDS011;5536;49.602;10.980;2022-09-12T06:21:41;0.90;;;0.70;;
10967;SDS011;5536;49.602;10.980;2022-09-12T06:24:09;2.97;;;0.90;;
10967;SDS011;5536;49.602;10.980;2022-09-12T06:26:37;0.67;;;0.67;;
10967;SDS011;5536;49.602;10.980;2022-09-12T06:29:04;1.60;;;0.77;;
10967;SDS011;5536;49.602;10.980;2022-09-12T06:31:32;0.93;;;0.93;;
10967;SDS011;5536;49.602;10.980;2022-09-12T06:34:00;2.17;;;0.90;;
10967;SDS011;5536;49.602;10.980;2022-09-12T06:36:29;1.43;;;1.10;;
10967;SDS011;5536;49.602;10.980;2022-09-12T06:38:58;1.47;;;1.40;;
10967;SDS011;5536;49.602;10.980;2022-09-12T06:41:26;1.20;;;1.10;;
10967;SDS011;5536;49.602;10.980;2022-09-12T06:43:55;1.53;;;1.43;;
10967;SDS011;5536;49.602;10.980;2022-09-12T06:46:23;2.43;;;1.10;;
10967;SDS011;5536;49.602;10.980;2022-09-12T06:48:50;0.90;;;0.90;;
10967;SDS011;5536;49.602;10.980;2022-09-12T06:51:18;2.37;;;1.43;;
10967;SDS011;5536;49.602;10.980;2022-09-12T06:53:45;1.27;;;1.17;;
10967;SDS011;5536;49.602;10.980;2022-09-12T06:56:13;2.43;;;1.10;;
10967;SDS011;5536;49.602;10.980;2022-09-12T06:58:41;6.87;;;0.80;;
10967;SDS011;5536;49.602;10.980;2022-09-12T07:01:10;1.10;;;0.90;;
10967;SDS011;5536;49.602;10.980;2022-09-12T07:03:39;1.30;;;1.20;;
10967;SDS011;5536;49.602;10.980;2022-09-12T07:06:07;1.60;;;1.27;;
10967;SDS011;5536;49.602;10.980;2022-09-12T07:08:35;1.37;;;1.37;;
10967;SDS011;5536;49.602;10.980;2022-09-12T07:11:09;1.07;;;1.07;;
10967;SDS011;5536;49.602;10.980;2022-09-12T07:13:37;1.50;;;1.40;;
10967;SDS011;5536;49.602;10.980;2022-09-12T07:16:04;1.27;;;1.07;;
10967;SDS011;5536;49.602;10.980;2022-09-12T07:18:33;0.90;;;0.90;;
10967;SDS011;5536;49.602;10.980;2022-09-12T07:21:02;1.57;;;1.47;;
10967;SDS011;5536;49.602;10.980;2022-09-12T07:23:30;0.83;;;0.83;;
10967;SDS011;5536;49.602;10.980;2022-09-12T07:25:57;2.50;;;1.13;;
10967;SDS011;5536;49.602;10.980;2022-09-12T07:28:25;1.07;;;0.97;;
10967;SDS011;5536;49.602;10.980;2022-09-12T07:30:54;1.10;;;1.00;;
10967;SDS011;5536;49.602;10.980;2022-09-12T07:33:22;1.23;;;1.17;;
10967;SDS011;5536;49.602;10.980;2022-09-12T07:35:53;1.87;;;1.50;;
10967;SDS011;5536;49.602;10.980;2022-09-12T07:38:20;1.50;;;1.40;;
10967;SDS011;5536;49.602;10.980;2022-09-12T07:40:47;3.50;;;1.87;;
10967;SDS011;5536;49.602;10.980;2022-09-12T07:43:14;1.53;;;1.43;;
10967;SDS011;5536;49.602;10.980;2022-09-12T07:45:41;1.63;;;1.53;;
10967;SDS011;5536;49.602;10.980;2022-09-12T07:48:08;1.57;;;1.37;;
10967;SDS011;5536;49.602;10.980;2022-09-12T07:50:35;1.17;;;1.17;;
10967;SDS011;5536;49.602;10.980;2022-09-12T07:53:03;2.73;;;1.80;;
10967;SDS011;5536;49.602;10.980;2022-09-12T07:55:30;1.30;;;1.20;;
10967;SDS011;5536;49.602;10.980;2022-09-12T07:57:57;1.47;;;1.37;;
10967;SDS011;5536;49.602;10.980;2022-09-12T08:00:24;1.47;;;1.40;;
10967;SDS011;5536;49.602;10.980;2022-09-12T08:03:00;1.23;;;1.23;;
10967;SDS011;5536;49.602;10.980;2022-09-12T08:05:28;3.10;;;1.73;;
10967;SDS011;5536;49.602;10.980;2022-09-12T08:07:55;1.23;;;1.23;;
10967;SDS011;5536;49.602;10.980;2022-09-12T08:10:24;2.20;;;1.70;;
10967;SDS011;5536;49.602;10.980;2022-09-12T08:12:51;1.27;;;1.17;;
10967;SDS011;5536;49.602;10.980;2022-09-12T08:15:17;1.10;;;1.00;;
10967;SDS011;5536;49.602;10.980;2022-09-12T08:17:45;2.33;;;1.23;;
10967;SDS011;5536;49.602;10.980;2022-09-12T08:20:12;1.77;;;1.63;;
10967;SDS011;5536;49.602;10.980;2022-09-12T08:22:39;2.67;;;1.30;;
10967;SDS011;5536;49.602;10.980;2022-09-12T08:25:06;1.57;;;1.47;;
10967;SDS011;5536;49.602;10.980;2022-09-12T08:27:35;1.67;;;0.97;;
10967;SDS011;5536;49.602;10.980;2022-09-12T08:30:03;1.97;;;1.70;;
10967;SDS011;5536;49.602;10.980;2022-09-12T08:32:31;2.17;;;2.07;;
10967;SDS011;5536;49.602;10.980;2022-09-12T08:34:59;1.50;;;1.40;;
10967;SDS011;5536;49.602;10.980;2022-09-12T08:37:28;4.53;;;2.30;;
10967;SDS011;5536;49.602;10.980;2022-09-12T08:39:55;1.60;;;1.50;;
10967;SDS011;5536;49.602;10.980;2022-09-12T08:42:23;1.93;;;1.80;;
10967;SDS011;5536;49.602;10.980;2022-09-12T08:45:03;1.60;;;1.50;;
10967;SDS011;5536;49.602;10.980;2022-09-12T08:47:40;2.33;;;2.13;;
10967;SDS011;5536;49.602;10.980;2022-09-12T08:50:14;1.60;;;1.37;;
10967;SDS011;5536;49.602;10.980;2022-09-12T08:52:51;1.50;;;1.40;;
10967;SDS011;5536;49.602;10.980;2022-09-12T08:55:28;1.70;;;1.60;;
10967;SDS011;5536;49.602;10.980;2022-09-12T08:57:57;4.20;;;1.40;;
10967;SDS011;5536;49.602;10.980;2022-09-12T09:00:29;1.93;;;1.67;;
10967;SDS011;5536;49.602;10.980;2022-09-12T09:06:00;2.67;;;1.40;;
10967;SDS011;5536;49.602;10.980;2022-09-12T09:08:42;1.47;;;1.37;;
10967;SDS011;5536;49.602;10.980;2022-09-12T09:11:19;1.83;;;1.73;;
10967;SDS011;5536;49.602;10.980;2022-09-12T09:13:55;1.90;;;1.80;;
10967;SDS011;5536;49.602;10.980;2022-09-12T09:16:50;1.60;;;1.50;;
10967;SDS011;5536;49.602;10.980;2022-09-12T09:19:19;1.27;;;1.17;;
10967;SDS011;5536;49.602;10.980;2022-09-12T09:21:51;1.57;;;1.47;;
10967;SDS011;5536;49.602;10.980;2022-09-12T09:24:23;1.43;;;1.33;;
10967;SDS011;5536;49.602;10.980;2022-09-12T09:26:59;2.43;;;1.53;;
10967;SDS011;5536;49.602;10.980;2022-09-12T09:29:31;2.47;;;2.20;;
10967;SDS011;5536;49.602;10.980;2022-09-12T09:32:05;2.13;;;1.93;;
10967;SDS011;5536;49.602;10.980;2022-09-12T09:34:39;2.00;;;1.60;;
10967;SDS011;5536;49.602;10.980;2022-09-12T09:37:07;2.53;;;2.23;;
10967;SDS011;5536;49.602;10.980;2022-09-12T09:39:45;1.40;;;1.30;;
10967;SDS011;5536;49.602;10.980;2022-09-12T09:42:23;2.13;;;2.00;;
10967;SDS011;5536;49.602;10.980;2022-09-12T09:44:56;1.33;;;1.30;;
10967;SDS011;5536;49.602;10.980;2022-09-12T09:47:27;1.97;;;1.80;;
10967;SDS011;5536;49.602;10.980;2022-09-12T09:49:54;2.50;;;2.30;;
10967;SDS011;5536;49.602;10.980;2022-09-12T09:52:23;2.10;;;1.90;;
10967;SDS011;5536;49.602;10.980;2022-09-12T09:54:54;2.37;;;1.50;;
10967;SDS011;5536;49.602;10.980;2022-09-12T09:57:37;2.63;;;1.80;;
10967;SDS011;5536;49.602;10.980;2022-09-12T10:00:25;1.43;;;1.33;;
10967;SDS011;5536;49.602;10.980;2022-09-12T10:03:05;1.73;;;1.63;;
10967;SDS011;5536;49.602;10.980;2022-09-12T10:05:50;1.27;;;1.27;;
10967;SDS011;5536;49.602;10.980;2022-09-12T10:08:18;1.15;;;1.10;;
10967;SDS011;5536;49.602;10.980;2022-09-12T10:11:01;1.33;;;1.23;;
10967;SDS011;5536;49.602;10.980;2022-09-12T10:13:31;1.23;;;1.13;;
10967;SDS011;5536;49.602;10.980;2022-09-12T10:16:04;1.00;;;1.00;;
10967;SDS011;5536;49.602;10.980;2022-09-12T10:18:35;1.10;;;1.00;;
10967;SDS011;5536;49.602;10.980;2022-09-12T10:21:19;1.83;;;1.27;;
10967;SDS011;5536;49.602;10.980;2022-09-12T10:23:56;1.40;;;1.30;;
10967;SDS011;5536;49.602;10.980;2022-09-12T10:26:32;1.10;;;1.02;;
10967;SDS011;5536;49.602;10.980;2022-09-12T10:29:02;1.35;;;1.25;;
10967;SDS011;5536;49.602;10.980;2022-09-12T10:31:40;1.17;;;1.02;;
10967;SDS011;5536;49.602;10.980;2022-09-12T10:34:18;1.33;;;1.23;;
10967;SDS011;5536;49.602;10.980;2022-09-12T10:36:52;1.15;;;1.05;;
10967;SDS011;5536;49.602;10.980;2022-09-12T10:39:25;0.93;;;0.93;;
10967;SDS011;5536;49.602;10.980;2022-09-12T10:41:52;1.50;;;1.40;;
10967;SDS011;5536;49.602;10.980;2022-09-12T10:44:22;2.17;;;1.98;;
10967;SDS011;5536;49.602;10.980;2022-09-12T10:46:51;3.17;;;1.92;;
10967;SDS011;5536;49.602;10.980;2022-09-12T10:49:24;2.33;;;1.65;;
10967;SDS011;5536;49.602;10.980;2022-09-12T10:51:54;1.67;;;1.58;;
10967;SDS011;5536;49.602;10.980;2022-09-12T10:54:24;1.42;;;1.30;;
10967;SDS011;5536;49.602;10.980;2022-09-12T11:02:49;1.38;;;1.30;;
10967;SDS011;5536;49.602;10.980;2022-09-12T11:08:20;1.42;;;1.35;;
10967;SDS011;5536;49.602;10.980;2022-09-12T11:11:06;1.27;;;1.17;;
10967;SDS011;5536;49.602;10.980;2022-09-12T11:13:47;1.95;;;1.20;;
10967;SDS011;5536;49.602;10.980;2022-09-12T11:16:22;1.38;;;1.23;;
10967;SDS011;5536;49.602;10.980;2022-09-12T11:21:59;1.63;;;1.30;;
10967;SDS011;5536;49.602;10.980;2022-09-12T11:24:46;1.80;;;1.67;;
10967;SDS011;5536;49.602;10.980;2022-09-12T11:27:29;2.25;;;1.50;;
10967;SDS011;5536;49.602;10.980;2022-09-12T11:30:11;0.75;;;0.75;;
10967;SDS011;5536;49.602;10.980;2022-09-12T11:35:33;1.42;;;1.30;;
10967;SDS011;5536;49.602;10.980;2022-09-12T11:38:16;1.13;;;1.13;;
10967;SDS011;5536;49.602;10.980;2022-09-12T11:41:08;1.23;;;1.13;;
10967;SDS011;5536;49.602;10.980;2022-09-12T11:43:42;1.40;;;1.30;;
10967;SDS011;5536;49.602;10.980;2022-09-12T11:46:15;1.27;;;1.20;;
10967;SDS011;5536;49.602;10.980;2022-09-12T11:48:47;0.63;;;0.63;;
10967;SDS011;5536;49.602;10.980;2022-09-12T11:51:23;0.80;;;0.80;;
10967;SDS011;5536;49.602;10.980;2022-09-12T11:53:59;1.10;;;1.00;;
10967;SDS011;5536;49.602;10.980;2022-09-12T11:56:32;1.27;;;1.13;;
10967;SDS011;5536;49.602;10.980;2022-09-12T11:59:08;1.08;;;0.98;;
10967;SDS011;5536;49.602;10.980;2022-09-12T12:01:41;1.73;;;1.20;;
10967;SDS011;5536;49.602;10.980;2022-09-12T12:04:11;0.93;;;0.93;;
10967;SDS011;5536;49.602;10.980;2022-09-12T12:06:45;1.52;;;1.27;;
10967;SDS011;5536;49.602;10.980;2022-09-12T12:09:17;1.33;;;0.88;;
10967;SDS011;5536;49.602;10.980;2022-09-12T12:11:46;0.98;;;0.98;;
10967;SDS011;5536;49.602;10.980;2022-09-12T12:14:17;1.15;;;1.13;;
10967;SDS011;5536;49.602;10.980;2022-09-12T12:16:47;0.85;;;0.85;;
10967;SDS011;5536;49.602;10.980;2022-09-12T12:19:25;0.47;;;0.47;;
10967;SDS011;5536;49.602;10.980;2022-09-12T12:22:07;1.10;;;1.10;;
10967;SDS011;5536;49.602;10.980;2022-09-12T12:25:03;1.08;;;0.98;;
10967;SDS011;5536;49.602;10.980;2022-09-12T12:36:34;0.75;;;0.75;;
10967;SDS011;5536;49.602;10.980;2022-09-12T12:48:34;1.48;;;1.38;;
10967;SDS011;5536;49.602;10.980;2022-09-12T12:51:19;1.70;;;0.98;;
10967;SDS011;5536;49.602;10.980;2022-09-12T12:54:03;1.52;;;1.13;;
10967;SDS011;5536;49.602;10.980;2022-09-12T12:56:59;1.52;;;1.00;;
10967;SDS011;5536;49.602;10.980;2022-09-12T12:59:43;1.17;;;1.08;;
10967;SDS011;5536;49.602;10.980;2022-09-12T13:02:15;2.22;;;1.38;;
10967;SDS011;5536;49.602;10.980;2022-09-12T13:04:47;0.73;;;0.73;;
10967;SDS011;5536;49.602;10.980;2022-09-12T13:07:20;1.15;;;0.88;;
10967;SDS011;5536;49.602;10.980;2022-09-12T13:09:52;2.17;;;1.83;;
10967;SDS011;5536;49.602;10.980;2022-09-12T13:12:21;2.25;;;1.67;;
10967;SDS011;5536;49.602;10.980;2022-09-12T13:14:52;1.50;;;1.40;;
10967;SDS011;5536;49.602;10.980;2022-09-12T13:17:26;1.40;;;1.30;;
10967;SDS011;5536;49.602;10.980;2022-09-12T13:20:04;7.53;;;1.52;;
10967;SDS011;5536;49.602;10.980;2022-09-12T13:22:39;1.10;;;0.85;;
10967;SDS011;5536;49.602;10.980;2022-09-12T13:25:17;1.20;;;1.10;;
10967;SDS011;5536;49.602;10.980;2022-09-12T13:27:55;1.08;;;1.02;;
10967;SDS011;5536;49.602;10.980;2022-09-12T13:30:23;0.70;;;0.70;;
10967;SDS011;5536;49.602;10.980;2022-09-12T13:32:52;0.98;;;0.95;;
10967;SDS011;5536;49.602;10.980;2022-09-12T13:35:20;0.88;;;0.88;;
10967;SDS011;5536;49.602;10.980;2022-09-12T13:37:59;1.20;;;1.00;;
10967;SDS011;5536;49.602;10.980;2022-09-12T13:40:38;0.65;;;0.65;;
10967;SDS011;5536;49.602;10.980;2022-09-12T13:43:11;0.70;;;0.70;;
10967;SDS011;5536;49.602;10.980;2022-09-12T13:45:40;0.85;;;0.85;;
10967;SDS011;5536;49.602;10.980;2022-09-12T13:48:12;0.52;;;0.52;;
10967;SDS011;5536;49.602;10.980;2022-09-12T13:50:44;1.10;;;1.00;;
10967;SDS011;5536;49.602;10.980;2022-09-12T13:53:16;1.45;;;0.85;;
10967;SDS011;5536;49.602;10.980;2022-09-12T13:55:46;1.00;;;0.90;;
10967;SDS011;5536;49.602;10.980;2022-09-12T13:58:17;0.70;;;0.70;;
10967;SDS011;5536;49.602;10.980;2022-09-12T14:00:58;0.82;;;0.82;;
10967;SDS011;5536;49.602;10.980;2022-09-12T14:03:28;1.38;;;1.27;;
10967;SDS011;5536;49.602;10.980;2022-09-12T14:06:14;2.25;;;1.08;;
10967;SDS011;5536;49.602;10.980;2022-09-12T14:08:43;0.90;;;0.90;;
10967;SDS011;5536;49.602;10.980;2022-09-12T14:11:16;0.95;;;0.90;;
10967;SDS011;5536;49.602;10.980;2022-09-12T14:13:49;1.75;;;1.10;;
10967;SDS011;5536;49.602;10.980;2022-09-12T14:16:17;1.65;;;0.90;;
10967;SDS011;5536;49.602;10.980;2022-09-12T14:18:48;1.40;;;1.30;;
10967;SDS011;5536;49.602;10.980;2022-09-12T14:21:23;1.58;;;1.23;;
10967;SDS011;5536;49.602;10.980;2022-09-12T14:23:58;0.63;;;0.63;;
10967;SDS011;5536;49.602;10.980;2022-09-12T14:26:26;0.70;;;0.70;;
10967;SDS011;5536;49.602;10.980;2022-09-12T14:28:57;1.08;;;1.02;;
10967;SDS011;5536;49.602;10.980;2022-09-12T14:31:27;1.35;;;1.25;;
10967;SDS011;5536;49.602;10.980;2022-09-12T14:34:08;1.17;;;1.08;;
10967;SDS011;5536;49.602;10.980;2022-09-12T14:36:39;1.13;;;0.68;;
10967;SDS011;5536;49.602;10.980;2022-09-12T14:39:14;1.40;;;1.30;;
10967;SDS011;5536;49.602;10.980;2022-09-12T14:41:46;0.43;;;0.43;;
10967;SDS011;5536;49.602;10.980;2022-09-12T14:44:15;0.82;;;0.80;;
10967;SDS011;5536;49.602;10.980;2022-09-12T14:46:44;0.93;;;0.93;;
10967;SDS011;5536;49.602;10.980;2022-09-12T14:49:15;0.75;;;0.75;;
10967;SDS011;5536;49.602;10.980;2022-09-12T14:51:47;1.42;;;0.85;;
10967;SDS011;5536;49.602;10.980;2022-09-12T14:54:33;0.63;;;0.63;;
10967;SDS011;5536;49.602;10.980;2022-09-12T14:57:02;2.05;;;0.80;;
10967;SDS011;5536;49.602;10.980;2022-09-12T14:59:35;0.75;;;0.75;;
10967;SDS011;5536;49.602;10.980;2022-09-12T15:02:22;0.77;;;0.70;;
10967;SDS011;5536;49.602;10.980;2022-09-12T15:04:53;1.10;;;1.10;;
10967;SDS011;5536;49.602;10.980;2022-09-12T15:07:40;0.60;;;0.60;;
10967;SDS011;5536;49.602;10.980;2022-09-12T15:10:13;0.90;;;0.90;;
10967;SDS011;5536;49.602;10.980;2022-09-12T15:12:46;4.90;;;1.23;;
10967;SDS011;5536;49.602;10.980;2022-09-12T15:15:14;1.80;;;0.95;;
10967;SDS011;5536;49.602;10.980;2022-09-12T15:17:42;0.80;;;0.80;;
10967;SDS011;5536;49.602;10.980;2022-09-12T15:20:10;1.00;;;1.00;;
10967;SDS011;5536;49.602;10.980;2022-09-12T15:22:38;1.02;;;1.02;;
10967;SDS011;5536;49.602;10.980;2022-09-12T15:25:07;1.15;;;1.02;;
10967;SDS011;5536;49.602;10.980;2022-09-12T15:27:37;1.38;;;0.90;;
10967;SDS011;5536;49.602;10.980;2022-09-12T15:30:05;0.65;;;0.65;;
10967;SDS011;5536;49.602;10.980;2022-09-12T15:32:34;0.98;;;0.98;;
10967;SDS011;5536;49.602;10.980;2022-09-12T15:35:02;1.30;;;1.20;;
10967;SDS011;5536;49.602;10.980;2022-09-12T15:37:36;0.82;;;0.82;;
10967;SDS011;5536;49.602;10.980;2022-09-12T15:40:03;1.80;;;1.08;;
10967;SDS011;5536;49.602;10.980;2022-09-12T15:42:30;1.08;;;0.80;;
10967;SDS011;5536;49.602;10.980;2022-09-12T15:47:33;0.52;;;0.52;;
10967;SDS011;5536;49.602;10.980;2022-09-12T15:50:00;1.25;;;1.15;;
10967;SDS011;5536;49.602;10.980;2022-09-12T15:52:26;1.15;;;1.13;;
10967;SDS011;5536;49.602;10.980;2022-09-12T15:54:55;0.77;;;0.77;;